sensor_id;sensor_type;location;lat;lon;timestamp;P1;durP1;ratioP1;P2;durP2;ratioP2
5456;SDS011;2751;49.802;9.944;2022-11-25T00:00:32;18.80;;;10.90;;
5456;SDS011;2751;49.802;9.944;2022-11-25T00:02:59;16.00;;;10.67;;
5456;SDS011;2751;49.802;9.944;2022-11-25T00:05:26;18.13;;;10.47;;
5456;SDS011;2751;49.802;9.944;2022-11-25T00:07:53;21.83;;;10.57;;
5456;SDS011;2751;49.802;9.944;2022-11-25T00:10:20;21.00;;;10.53;;
5456;SDS011;2751;49.802;9.944;2022-11-25T00:12:47;15.97;;;10.30;;
5456;SDS011;2751;49.802;9.944;2022-11-25T00:15:14;19.90;;;10.83;;
5456;SDS011;2751;49.802;9.944;2022-11-25T00:17:42;17.63;;;10.80;;
5456;SDS011;2751;49.802;9.944;2022-11-25T00:20:09;23.97;;;11.07;;
5456;SDS011;2751;49.802;9.944;2022-11-25T00:22:36;17.70;;;11.27;;
5456;SDS011;2751;49.802;9.944;2022-11-25T00:25:04;22.27;;;12.00;;
5456;SDS011;2751;49.802;9.944;2022-11-25T00:27:31;20.30;;;11.60;;
5456;SDS011;2751;49.802;9.944;2022-11-25T00:29:58;19.70;;;11.73;;
5456;SDS011;2751;49.802;9.944;2022-11-25T00:32:25;19.53;;;10.40;;
5456;SDS011;2751;49.802;9.944;2022-11-25T00:34:53;21.77;;;12.50;;
5456;SDS011;2751;49.802;9.944;2022-11-25T00:37:20;18.50;;;12.20;;
5456;SDS011;2751;49.802;9.944;2022-11-25T00:39:47;19.77;;;12.47;;
5456;SDS011;2751;49.802;9.944;2022-11-25T00:42:14;20.30;;;11.50;;
5456;SDS011;2751;49.802;9.944;2022-11-25T00:44:59;18.33;;;10.73;;
5456;SDS011;2751;49.802;9.944;2022-11-25T00:47:26;18.27;;;11.00;;
5456;SDS011;2751;49.802;9.944;2022-11-25T00:49:54;18.23;;;10.60;;
5456;SDS011;2751;49.802;9.944;2022-11-25T00:52:23;14.77;;;9.87;;
5456;SDS011;2751;49.802;9.944;2022-11-25T00:54:51;15.77;;;10.17;;
5456;SDS011;2751;49.802;9.944;2022-11-25T00:57:21;19.83;;;10.30;;
5456;SDS011;2751;49.802;9.944;2022-11-25T00:59:48;21.37;;;9.77;;
5456;SDS011;2751;49.802;9.944;2022-11-25T01:02:16;21.50;;;9.97;;
5456;SDS011;2751;49.802;9.944;2022-11-25T01:04:44;18.60;;;9.60;;
5456;SDS011;2751;49.802;9.944;2022-11-25T01:07:13;15.47;;;9.53;;
5456;SDS011;2751;49.802;9.944;2022-11-25T01:09:40;23.43;;;10.47;;
5456;SDS011;2751;49.802;9.944;2022-11-25T01:12:06;22.13;;;9.70;;
5456;SDS011;2751;49.802;9.944;2022-11-25T01:14:33;18.77;;;9.73;;
5456;SDS011;2751;49.802;9.944;2022-11-25T01:17:00;22.10;;;9.80;;
5456;SDS011;2751;49.802;9.944;2022-11-25T01:19:27;21.67;;;10.33;;
5456;SDS011;2751;49.802;9.944;2022-11-25T01:21:54;17.80;;;10.33;;
5456;SDS011;2751;49.802;9.944;2022-11-25T01:24:22;22.90;;;10.50;;
5456;SDS011;2751;49.802;9.944;2022-11-25T01:26:50;16.40;;;10.60;;
5456;SDS011;2751;49.802;9.944;2022-11-25T01:29:18;13.03;;;9.17;;
5456;SDS011;2751;49.802;9.944;2022-11-25T01:31:46;20.43;;;10.80;;
5456;SDS011;2751;49.802;9.944;2022-11-25T01:34:14;19.33;;;10.97;;
5456;SDS011;2751;49.802;9.944;2022-11-25T01:36:42;16.13;;;10.53;;
5456;SDS011;2751;49.802;9.944;2022-11-25T01:39:10;19.93;;;10.27;;
5456;SDS011;2751;49.802;9.944;2022-11-25T01:41:43;23.23;;;11.17;;
5456;SDS011;2751;49.802;9.944;2022-11-25T01:44:11;23.70;;;10.53;;
5456;SDS011;2751;49.802;9.944;2022-11-25T01:46:50;18.83;;;11.50;;
5456;SDS011;2751;49.802;9.944;2022-11-25T01:49:26;16.87;;;9.90;;
5456;SDS011;2751;49.802;9.944;2022-11-25T01:51:58;19.27;;;9.50;;
5456;SDS011;2751;49.802;9.944;2022-11-25T01:54:32;17.10;;;10.03;;
5456;SDS011;2751;49.802;9.944;2022-11-25T01:57:04;17.07;;;10.17;;
5456;SDS011;2751;49.802;9.944;2022-11-25T01:59:36;18.53;;;9.90;;
5456;SDS011;2751;49.802;9.944;2022-11-25T02:02:08;39.07;;;9.73;;
5456;SDS011;2751;49.802;9.944;2022-11-25T02:04:37;18.83;;;10.27;;
5456;SDS011;2751;49.802;9.944;2022-11-25T02:07:07;15.40;;;9.83;;
5456;SDS011;2751;49.802;9.944;2022-11-25T02:09:39;19.00;;;10.23;;
5456;SDS011;2751;49.802;9.944;2022-11-25T02:12:09;16.70;;;10.37;;
5456;SDS011;2751;49.802;9.944;2022-11-25T02:14:37;20.53;;;9.57;;
5456;SDS011;2751;49.802;9.944;2022-11-25T02:17:05;18.20;;;10.10;;
5456;SDS011;2751;49.802;9.944;2022-11-25T02:19:37;15.83;;;9.77;;
5456;SDS011;2751;49.802;9.944;2022-11-25T02:22:14;14.27;;;9.80;;
5456;SDS011;2751;49.802;9.944;2022-11-25T02:24:49;20.27;;;10.57;;
5456;SDS011;2751;49.802;9.944;2022-11-25T02:27:20;17.40;;;10.17;;
5456;SDS011;2751;49.802;9.944;2022-11-25T02:29:47;16.37;;;10.13;;
5456;SDS011;2751;49.802;9.944;2022-11-25T02:32:19;15.00;;;8.87;;
5456;SDS011;2751;49.802;9.944;2022-11-25T02:34:47;15.57;;;9.70;;
5456;SDS011;2751;49.802;9.944;2022-11-25T02:37:14;18.90;;;10.00;;
5456;SDS011;2751;49.802;9.944;2022-11-25T02:39:44;18.93;;;9.93;;
5456;SDS011;2751;49.802;9.944;2022-11-25T02:42:14;14.53;;;9.30;;
5456;SDS011;2751;49.802;9.944;2022-11-25T02:44:44;14.90;;;9.80;;
5456;SDS011;2751;49.802;9.944;2022-11-25T02:47:12;16.90;;;9.13;;
5456;SDS011;2751;49.802;9.944;2022-11-25T02:49:39;15.20;;;8.60;;
5456;SDS011;2751;49.802;9.944;2022-11-25T02:52:06;16.30;;;7.90;;
5456;SDS011;2751;49.802;9.944;2022-11-25T02:54:33;17.20;;;8.60;;
5456;SDS011;2751;49.802;9.944;2022-11-25T02:57:00;15.00;;;8.00;;
5456;SDS011;2751;49.802;9.944;2022-11-25T02:59:27;13.67;;;8.30;;
5456;SDS011;2751;49.802;9.944;2022-11-25T03:01:55;14.13;;;7.90;;
5456;SDS011;2751;49.802;9.944;2022-11-25T03:04:22;8.07;;;5.60;;
5456;SDS011;2751;49.802;9.944;2022-11-25T03:06:49;9.03;;;6.40;;
5456;SDS011;2751;49.802;9.944;2022-11-25T03:09:16;11.77;;;7.10;;
5456;SDS011;2751;49.802;9.944;2022-11-25T03:11:43;14.00;;;8.20;;
5456;SDS011;2751;49.802;9.944;2022-11-25T03:14:28;13.83;;;7.47;;
5456;SDS011;2751;49.802;9.944;2022-11-25T03:16:56;10.30;;;7.70;;
5456;SDS011;2751;49.802;9.944;2022-11-25T03:19:23;12.10;;;7.60;;
5456;SDS011;2751;49.802;9.944;2022-11-25T03:21:50;15.80;;;8.93;;
5456;SDS011;2751;49.802;9.944;2022-11-25T03:24:17;13.20;;;9.60;;
5456;SDS011;2751;49.802;9.944;2022-11-25T03:26:44;16.90;;;9.17;;
5456;SDS011;2751;49.802;9.944;2022-11-25T03:29:11;10.97;;;8.20;;
5456;SDS011;2751;49.802;9.944;2022-11-25T03:31:38;16.37;;;8.10;;
5456;SDS011;2751;49.802;9.944;2022-11-25T03:34:06;12.40;;;8.80;;
5456;SDS011;2751;49.802;9.944;2022-11-25T03:36:33;14.43;;;8.70;;
5456;SDS011;2751;49.802;9.944;2022-11-25T03:39:00;15.03;;;8.23;;
5456;SDS011;2751;49.802;9.944;2022-11-25T03:41:27;16.93;;;9.10;;
5456;SDS011;2751;49.802;9.944;2022-11-25T03:43:53;15.13;;;9.10;;
5456;SDS011;2751;49.802;9.944;2022-11-25T03:46:20;20.20;;;7.53;;
5456;SDS011;2751;49.802;9.944;2022-11-25T03:48:47;10.33;;;6.90;;
5456;SDS011;2751;49.802;9.944;2022-11-25T03:51:17;11.43;;;7.23;;
5456;SDS011;2751;49.802;9.944;2022-11-25T03:53:43;10.40;;;6.63;;
5456;SDS011;2751;49.802;9.944;2022-11-25T03:56:11;11.13;;;7.50;;
5456;SDS011;2751;49.802;9.944;2022-11-25T03:58:38;12.73;;;7.20;;
5456;SDS011;2751;49.802;9.944;2022-11-25T04:01:05;12.30;;;7.63;;
5456;SDS011;2751;49.802;9.944;2022-11-25T04:03:32;10.93;;;7.00;;
5456;SDS011;2751;49.802;9.944;2022-11-25T04:05:59;11.87;;;6.73;;
5456;SDS011;2751;49.802;9.944;2022-11-25T04:08:27;10.63;;;6.60;;
5456;SDS011;2751;49.802;9.944;2022-11-25T04:10:54;11.80;;;6.60;;
5456;SDS011;2751;49.802;9.944;2022-11-25T04:13:24;15.00;;;7.17;;
5456;SDS011;2751;49.802;9.944;2022-11-25T04:15:50;16.63;;;7.03;;
5456;SDS011;2751;49.802;9.944;2022-11-25T04:18:17;8.00;;;5.40;;
5456;SDS011;2751;49.802;9.944;2022-11-25T04:20:45;7.13;;;5.60;;
5456;SDS011;2751;49.802;9.944;2022-11-25T04:23:12;14.90;;;6.13;;
5456;SDS011;2751;49.802;9.944;2022-11-25T04:25:40;14.23;;;5.63;;
5456;SDS011;2751;49.802;9.944;2022-11-25T04:28:07;10.90;;;6.50;;
5456;SDS011;2751;49.802;9.944;2022-11-25T04:30:35;20.30;;;6.67;;
5456;SDS011;2751;49.802;9.944;2022-11-25T04:33:02;32.20;;;7.73;;
5456;SDS011;2751;49.802;9.944;2022-11-25T04:35:29;22.37;;;8.07;;
5456;SDS011;2751;49.802;9.944;2022-11-25T04:37:56;28.50;;;7.50;;
5456;SDS011;2751;49.802;9.944;2022-11-25T04:40:23;14.80;;;7.50;;
5456;SDS011;2751;49.802;9.944;2022-11-25T04:42:51;15.73;;;7.70;;
5456;SDS011;2751;49.802;9.944;2022-11-25T04:45:18;16.77;;;8.27;;
5456;SDS011;2751;49.802;9.944;2022-11-25T04:47:45;24.37;;;8.07;;
5456;SDS011;2751;49.802;9.944;2022-11-25T04:50:13;17.90;;;7.57;;
5456;SDS011;2751;49.802;9.944;2022-11-25T04:52:42;11.87;;;7.60;;
5456;SDS011;2751;49.802;9.944;2022-11-25T04:55:09;19.97;;;7.67;;
5456;SDS011;2751;49.802;9.944;2022-11-25T04:57:36;16.30;;;10.17;;
5456;SDS011;2751;49.802;9.944;2022-11-25T05:00:06;13.10;;;7.50;;
5456;SDS011;2751;49.802;9.944;2022-11-25T05:02:33;14.60;;;7.60;;
5456;SDS011;2751;49.802;9.944;2022-11-25T05:05:00;18.40;;;7.27;;
5456;SDS011;2751;49.802;9.944;2022-11-25T05:07:28;15.40;;;7.30;;
5456;SDS011;2751;49.802;9.944;2022-11-25T05:09:55;15.93;;;7.43;;
5456;SDS011;2751;49.802;9.944;2022-11-25T05:12:23;13.23;;;7.10;;
5456;SDS011;2751;49.802;9.944;2022-11-25T05:14:51;12.80;;;6.70;;
5456;SDS011;2751;49.802;9.944;2022-11-25T05:17:21;15.10;;;6.50;;
5456;SDS011;2751;49.802;9.944;2022-11-25T05:19:49;17.27;;;7.20;;
5456;SDS011;2751;49.802;9.944;2022-11-25T05:22:16;13.63;;;7.20;;
5456;SDS011;2751;49.802;9.944;2022-11-25T05:24:45;11.63;;;7.10;;
5456;SDS011;2751;49.802;9.944;2022-11-25T05:27:12;13.00;;;7.23;;
5456;SDS011;2751;49.802;9.944;2022-11-25T05:29:40;18.17;;;7.40;;
5456;SDS011;2751;49.802;9.944;2022-11-25T05:32:07;20.87;;;7.77;;
5456;SDS011;2751;49.802;9.944;2022-11-25T05:34:36;13.80;;;7.30;;
5456;SDS011;2751;49.802;9.944;2022-11-25T05:37:03;11.90;;;7.43;;
5456;SDS011;2751;49.802;9.944;2022-11-25T05:39:30;12.10;;;7.27;;
5456;SDS011;2751;49.802;9.944;2022-11-25T05:41:57;11.70;;;7.60;;
5456;SDS011;2751;49.802;9.944;2022-11-25T05:44:24;9.87;;;6.73;;
5456;SDS011;2751;49.802;9.944;2022-11-25T05:46:51;10.10;;;7.00;;
5456;SDS011;2751;49.802;9.944;2022-11-25T05:49:18;11.33;;;6.07;;
5456;SDS011;2751;49.802;9.944;2022-11-25T05:51:47;14.20;;;6.60;;
5456;SDS011;2751;49.802;9.944;2022-11-25T05:54:14;16.73;;;6.67;;
5456;SDS011;2751;49.802;9.944;2022-11-25T05:56:41;11.80;;;6.00;;
5456;SDS011;2751;49.802;9.944;2022-11-25T05:59:08;11.73;;;6.90;;
5456;SDS011;2751;49.802;9.944;2022-11-25T06:01:35;11.70;;;7.10;;
5456;SDS011;2751;49.802;9.944;2022-11-25T06:04:02;10.80;;;6.50;;
5456;SDS011;2751;49.802;9.944;2022-11-25T06:06:30;15.33;;;7.60;;
5456;SDS011;2751;49.802;9.944;2022-11-25T06:08:58;10.77;;;7.30;;
5456;SDS011;2751;49.802;9.944;2022-11-25T06:11:26;13.80;;;7.97;;
5456;SDS011;2751;49.802;9.944;2022-11-25T06:13:54;13.47;;;8.13;;
5456;SDS011;2751;49.802;9.944;2022-11-25T06:16:23;16.30;;;8.60;;
5456;SDS011;2751;49.802;9.944;2022-11-25T06:18:50;20.77;;;9.77;;
5456;SDS011;2751;49.802;9.944;2022-11-25T06:21:17;33.60;;;9.03;;
5456;SDS011;2751;49.802;9.944;2022-11-25T06:23:45;17.93;;;8.87;;
5456;SDS011;2751;49.802;9.944;2022-11-25T06:26:13;19.67;;;9.20;;
5456;SDS011;2751;49.802;9.944;2022-11-25T06:28:41;23.80;;;10.30;;
5456;SDS011;2751;49.802;9.944;2022-11-25T06:31:09;16.87;;;10.27;;
5456;SDS011;2751;49.802;9.944;2022-11-25T06:33:37;17.90;;;11.30;;
5456;SDS011;2751;49.802;9.944;2022-11-25T06:36:05;16.47;;;9.63;;
5456;SDS011;2751;49.802;9.944;2022-11-25T06:38:34;15.20;;;8.80;;
5456;SDS011;2751;49.802;9.944;2022-11-25T06:41:01;21.50;;;8.90;;
5456;SDS011;2751;49.802;9.944;2022-11-25T06:43:30;16.17;;;8.23;;
5456;SDS011;2751;49.802;9.944;2022-11-25T06:46:02;15.60;;;8.73;;
5456;SDS011;2751;49.802;9.944;2022-11-25T06:48:30;15.80;;;8.43;;
5456;SDS011;2751;49.802;9.944;2022-11-25T06:50:57;19.30;;;9.50;;
5456;SDS011;2751;49.802;9.944;2022-11-25T06:53:25;14.47;;;8.33;;
5456;SDS011;2751;49.802;9.944;2022-11-25T06:56:00;18.70;;;7.30;;
5456;SDS011;2751;49.802;9.944;2022-11-25T06:58:30;17.37;;;7.17;;
5456;SDS011;2751;49.802;9.944;2022-11-25T07:01:00;18.83;;;8.37;;
5456;SDS011;2751;49.802;9.944;2022-11-25T07:03:28;18.70;;;8.53;;
5456;SDS011;2751;49.802;9.944;2022-11-25T07:05:55;19.53;;;8.27;;
5456;SDS011;2751;49.802;9.944;2022-11-25T07:08:24;26.40;;;9.30;;
5456;SDS011;2751;49.802;9.944;2022-11-25T07:10:52;18.27;;;8.03;;
5456;SDS011;2751;49.802;9.944;2022-11-25T07:13:19;14.93;;;8.10;;
5456;SDS011;2751;49.802;9.944;2022-11-25T07:15:48;17.40;;;10.20;;
5456;SDS011;2751;49.802;9.944;2022-11-25T07:18:15;23.07;;;9.23;;
5456;SDS011;2751;49.802;9.944;2022-11-25T07:20:41;15.70;;;7.03;;
5456;SDS011;2751;49.802;9.944;2022-11-25T07:23:08;19.50;;;8.90;;
5456;SDS011;2751;49.802;9.944;2022-11-25T07:25:35;25.67;;;10.93;;
5456;SDS011;2751;49.802;9.944;2022-11-25T07:28:05;20.50;;;11.97;;
5456;SDS011;2751;49.802;9.944;2022-11-25T07:30:32;20.73;;;10.23;;
5456;SDS011;2751;49.802;9.944;2022-11-25T07:33:00;28.13;;;10.13;;
5456;SDS011;2751;49.802;9.944;2022-11-25T07:35:27;25.60;;;10.00;;
5456;SDS011;2751;49.802;9.944;2022-11-25T07:37:54;16.63;;;8.60;;
5456;SDS011;2751;49.802;9.944;2022-11-25T07:40:22;18.17;;;8.30;;
5456;SDS011;2751;49.802;9.944;2022-11-25T07:42:49;12.30;;;7.47;;
5456;SDS011;2751;49.802;9.944;2022-11-25T07:45:16;14.73;;;7.40;;
5456;SDS011;2751;49.802;9.944;2022-11-25T07:47:45;9.67;;;7.23;;
5456;SDS011;2751;49.802;9.944;2022-11-25T07:50:14;17.07;;;7.30;;
5456;SDS011;2751;49.802;9.944;2022-11-25T07:52:41;15.57;;;7.00;;
5456;SDS011;2751;49.802;9.944;2022-11-25T07:55:08;13.43;;;7.97;;
5456;SDS011;2751;49.802;9.944;2022-11-25T07:57:35;15.37;;;7.67;;
5456;SDS011;2751;49.802;9.944;2022-11-25T08:00:02;14.47;;;8.20;;
5456;SDS011;2751;49.802;9.944;2022-11-25T08:02:30;12.57;;;8.07;;
5456;SDS011;2751;49.802;9.944;2022-11-25T08:05:00;13.30;;;8.20;;
5456;SDS011;2751;49.802;9.944;2022-11-25T08:07:28;15.10;;;9.00;;
5456;SDS011;2751;49.802;9.944;2022-11-25T08:09:55;15.47;;;8.60;;
5456;SDS011;2751;49.802;9.944;2022-11-25T08:12:22;11.43;;;8.40;;
5456;SDS011;2751;49.802;9.944;2022-11-25T08:14:49;11.80;;;8.70;;
5456;SDS011;2751;49.802;9.944;2022-11-25T08:17:16;10.80;;;7.70;;
5456;SDS011;2751;49.802;9.944;2022-11-25T08:19:42;18.13;;;11.30;;
5456;SDS011;2751;49.802;9.944;2022-11-25T08:22:09;16.80;;;9.10;;
5456;SDS011;2751;49.802;9.944;2022-11-25T08:24:38;11.37;;;7.47;;
5456;SDS011;2751;49.802;9.944;2022-11-25T08:27:05;12.90;;;8.60;;
5456;SDS011;2751;49.802;9.944;2022-11-25T08:29:32;12.00;;;6.90;;
5456;SDS011;2751;49.802;9.944;2022-11-25T08:31:59;11.43;;;7.40;;
5456;SDS011;2751;49.802;9.944;2022-11-25T08:34:25;12.17;;;7.30;;
5456;SDS011;2751;49.802;9.944;2022-11-25T08:36:52;10.90;;;7.63;;
5456;SDS011;2751;49.802;9.944;2022-11-25T08:39:20;15.30;;;9.90;;
5456;SDS011;2751;49.802;9.944;2022-11-25T08:41:49;13.97;;;7.90;;
5456;SDS011;2751;49.802;9.944;2022-11-25T08:44:16;12.23;;;7.33;;
5456;SDS011;2751;49.802;9.944;2022-11-25T08:46:43;9.60;;;7.77;;
5456;SDS011;2751;49.802;9.944;2022-11-25T08:49:10;10.43;;;7.70;;
5456;SDS011;2751;49.802;9.944;2022-11-25T08:51:38;9.93;;;6.53;;
5456;SDS011;2751;49.802;9.944;2022-11-25T08:54:05;11.60;;;7.67;;
5456;SDS011;2751;49.802;9.944;2022-11-25T08:56:33;9.07;;;6.87;;
5456;SDS011;2751;49.802;9.944;2022-11-25T08:59:02;10.77;;;6.63;;
5456;SDS011;2751;49.802;9.944;2022-11-25T09:01:29;9.20;;;7.20;;
5456;SDS011;2751;49.802;9.944;2022-11-25T09:03:56;10.53;;;7.20;;
5456;SDS011;2751;49.802;9.944;2022-11-25T09:06:24;10.03;;;6.30;;
5456;SDS011;2751;49.802;9.944;2022-11-25T09:08:53;8.57;;;7.10;;
5456;SDS011;2751;49.802;9.944;2022-11-25T09:11:21;9.33;;;7.03;;
5456;SDS011;2751;49.802;9.944;2022-11-25T09:13:49;12.00;;;6.57;;
5456;SDS011;2751;49.802;9.944;2022-11-25T09:16:17;10.90;;;6.87;;
5456;SDS011;2751;49.802;9.944;2022-11-25T09:18:45;13.00;;;8.37;;
5456;SDS011;2751;49.802;9.944;2022-11-25T09:21:13;12.43;;;7.93;;
5456;SDS011;2751;49.802;9.944;2022-11-25T09:23:41;9.27;;;7.53;;
5456;SDS011;2751;49.802;9.944;2022-11-25T09:26:09;10.63;;;8.03;;
5456;SDS011;2751;49.802;9.944;2022-11-25T09:28:44;11.30;;;6.90;;
5456;SDS011;2751;49.802;9.944;2022-11-25T09:31:11;10.60;;;7.10;;
5456;SDS011;2751;49.802;9.944;2022-11-25T09:33:39;13.20;;;7.93;;
5456;SDS011;2751;49.802;9.944;2022-11-25T09:36:06;11.40;;;7.50;;
5456;SDS011;2751;49.802;9.944;2022-11-25T09:38:35;9.73;;;7.40;;
5456;SDS011;2751;49.802;9.944;2022-11-25T09:41:02;10.20;;;6.87;;
5456;SDS011;2751;49.802;9.944;2022-11-25T09:43:35;7.93;;;6.50;;
5456;SDS011;2751;49.802;9.944;2022-11-25T09:46:35;10.77;;;7.73;;
5456;SDS011;2751;49.802;9.944;2022-11-25T09:49:26;11.30;;;8.17;;
5456;SDS011;2751;49.802;9.944;2022-11-25T09:52:15;8.30;;;6.73;;
5456;SDS011;2751;49.802;9.944;2022-11-25T09:54:51;10.73;;;7.10;;
5456;SDS011;2751;49.802;9.944;2022-11-25T09:57:24;9.60;;;8.60;;
5456;SDS011;2751;49.802;9.944;2022-11-25T09:59:58;10.20;;;6.90;;
5456;SDS011;2751;49.802;9.944;2022-11-25T10:02:33;13.47;;;8.07;;
5456;SDS011;2751;49.802;9.944;2022-11-25T10:05:07;9.70;;;6.67;;
5456;SDS011;2751;49.802;9.944;2022-11-25T10:07:42;8.00;;;7.07;;
5456;SDS011;2751;49.802;9.944;2022-11-25T10:10:13;7.60;;;6.80;;
5456;SDS011;2751;49.802;9.944;2022-11-25T10:12:45;8.10;;;7.00;;
5456;SDS011;2751;49.802;9.944;2022-11-25T10:15:14;8.40;;;7.10;;
5456;SDS011;2751;49.802;9.944;2022-11-25T10:17:46;7.13;;;6.37;;
5456;SDS011;2751;49.802;9.944;2022-11-25T10:20:19;7.60;;;6.60;;
5456;SDS011;2751;49.802;9.944;2022-11-25T10:22:47;11.10;;;6.80;;
5456;SDS011;2751;49.802;9.944;2022-11-25T10:25:18;11.47;;;8.07;;
5456;SDS011;2751;49.802;9.944;2022-11-25T10:27:48;15.03;;;9.03;;
5456;SDS011;2751;49.802;9.944;2022-11-25T10:30:19;9.57;;;7.13;;
5456;SDS011;2751;49.802;9.944;2022-11-25T10:32:51;13.30;;;9.20;;
5456;SDS011;2751;49.802;9.944;2022-11-25T10:35:32;8.73;;;6.90;;
5456;SDS011;2751;49.802;9.944;2022-11-25T10:38:02;9.80;;;7.00;;
5456;SDS011;2751;49.802;9.944;2022-11-25T10:40:36;9.77;;;7.27;;
5456;SDS011;2751;49.802;9.944;2022-11-25T10:43:07;10.20;;;6.80;;
5456;SDS011;2751;49.802;9.944;2022-11-25T10:45:39;9.77;;;7.50;;
5456;SDS011;2751;49.802;9.944;2022-11-25T10:51:34;10.50;;;6.90;;
5456;SDS011;2751;49.802;9.944;2022-11-25T10:54:13;9.10;;;7.40;;
5456;SDS011;2751;49.802;9.944;2022-11-25T10:56:44;10.10;;;7.67;;
5456;SDS011;2751;49.802;9.944;2022-11-25T10:59:22;9.43;;;6.97;;
5456;SDS011;2751;49.802;9.944;2022-11-25T11:01:52;9.13;;;6.73;;
5456;SDS011;2751;49.802;9.944;2022-11-25T11:04:31;10.10;;;7.07;;
5456;SDS011;2751;49.802;9.944;2022-11-25T11:07:05;11.10;;;6.97;;
5456;SDS011;2751;49.802;9.944;2022-11-25T11:09:34;7.33;;;6.30;;
5456;SDS011;2751;49.802;9.944;2022-11-25T11:12:07;12.50;;;7.50;;
5456;SDS011;2751;49.802;9.944;2022-11-25T11:14:41;13.87;;;7.80;;
5456;SDS011;2751;49.802;9.944;2022-11-25T11:17:20;8.60;;;7.70;;
5456;SDS011;2751;49.802;9.944;2022-11-25T11:19:58;7.67;;;6.87;;
5456;SDS011;2751;49.802;9.944;2022-11-25T11:22:31;12.40;;;7.80;;
5456;SDS011;2751;49.802;9.944;2022-11-25T11:25:05;9.90;;;6.50;;
5456;SDS011;2751;49.802;9.944;2022-11-25T11:27:35;11.27;;;7.50;;
5456;SDS011;2751;49.802;9.944;2022-11-25T11:30:07;9.90;;;7.40;;
5456;SDS011;2751;49.802;9.944;2022-11-25T11:32:35;8.17;;;7.37;;
5456;SDS011;2751;49.802;9.944;2022-11-25T11:35:06;8.90;;;7.40;;
5456;SDS011;2751;49.802;9.944;2022-11-25T11:37:45;9.33;;;7.80;;
5456;SDS011;2751;49.802;9.944;2022-11-25T11:40:20;9.87;;;7.30;;
5456;SDS011;2751;49.802;9.944;2022-11-25T11:43:07;9.50;;;8.13;;
5456;SDS011;2751;49.802;9.944;2022-11-25T11:45:50;9.57;;;6.93;;
5456;SDS011;2751;49.802;9.944;2022-11-25T11:48:29;12.43;;;7.07;;
5456;SDS011;2751;49.802;9.944;2022-11-25T11:51:06;11.30;;;8.00;;
5456;SDS011;2751;49.802;9.944;2022-11-25T11:53:43;12.83;;;8.47;;
5456;SDS011;2751;49.802;9.944;2022-11-25T11:56:20;21.60;;;11.80;;
5456;SDS011;2751;49.802;9.944;2022-11-25T11:59:00;22.03;;;12.90;;
5456;SDS011;2751;49.802;9.944;2022-11-25T12:01:52;15.60;;;10.10;;
5456;SDS011;2751;49.802;9.944;2022-11-25T12:04:32;21.63;;;10.97;;
5456;SDS011;2751;49.802;9.944;2022-11-25T12:07:05;16.57;;;11.77;;
5456;SDS011;2751;49.802;9.944;2022-11-25T12:09:38;16.73;;;9.30;;
5456;SDS011;2751;49.802;9.944;2022-11-25T12:12:12;15.17;;;10.63;;
5456;SDS011;2751;49.802;9.944;2022-11-25T12:14:44;13.73;;;10.60;;
5456;SDS011;2751;49.802;9.944;2022-11-25T12:17:14;15.53;;;10.63;;
5456;SDS011;2751;49.802;9.944;2022-11-25T12:19:46;17.27;;;10.70;;
5456;SDS011;2751;49.802;9.944;2022-11-25T12:22:20;14.87;;;9.90;;
5456;SDS011;2751;49.802;9.944;2022-11-25T12:24:56;19.30;;;10.37;;
5456;SDS011;2751;49.802;9.944;2022-11-25T12:27:30;17.07;;;10.20;;
5456;SDS011;2751;49.802;9.944;2022-11-25T12:30:03;15.70;;;10.50;;
5456;SDS011;2751;49.802;9.944;2022-11-25T12:32:37;11.87;;;9.70;;
5456;SDS011;2751;49.802;9.944;2022-11-25T12:35:19;12.03;;;9.27;;
5456;SDS011;2751;49.802;9.944;2022-11-25T12:37:55;12.23;;;9.90;;
5456;SDS011;2751;49.802;9.944;2022-11-25T12:40:31;15.43;;;9.90;;
5456;SDS011;2751;49.802;9.944;2022-11-25T12:43:05;14.77;;;10.93;;
5456;SDS011;2751;49.802;9.944;2022-11-25T12:45:43;17.57;;;11.03;;
5456;SDS011;2751;49.802;9.944;2022-11-25T12:48:11;13.43;;;10.17;;
5456;SDS011;2751;49.802;9.944;2022-11-25T12:50:41;21.37;;;11.23;;
5456;SDS011;2751;49.802;9.944;2022-11-25T12:53:20;15.23;;;10.43;;
5456;SDS011;2751;49.802;9.944;2022-11-25T12:55:58;24.47;;;10.30;;
5456;SDS011;2751;49.802;9.944;2022-11-25T12:58:29;13.27;;;9.37;;
5456;SDS011;2751;49.802;9.944;2022-11-25T13:01:20;12.80;;;9.97;;
5456;SDS011;2751;49.802;9.944;2022-11-25T13:07:22;17.93;;;11.27;;
5456;SDS011;2751;49.802;9.944;2022-11-25T13:10:13;18.63;;;11.70;;
5456;SDS011;2751;49.802;9.944;2022-11-25T13:12:59;14.50;;;10.67;;
5456;SDS011;2751;49.802;9.944;2022-11-25T13:15:36;13.70;;;9.50;;
5456;SDS011;2751;49.802;9.944;2022-11-25T13:18:07;13.60;;;9.57;;
5456;SDS011;2751;49.802;9.944;2022-11-25T13:20:45;16.97;;;10.00;;
5456;SDS011;2751;49.802;9.944;2022-11-25T13:23:23;16.50;;;10.20;;
5456;SDS011;2751;49.802;9.944;2022-11-25T13:32:39;14.17;;;9.93;;
5456;SDS011;2751;49.802;9.944;2022-11-25T13:38:06;19.17;;;10.57;;
5456;SDS011;2751;49.802;9.944;2022-11-25T13:40:58;14.13;;;11.07;;
5456;SDS011;2751;49.802;9.944;2022-11-25T13:43:27;13.17;;;10.27;;
5456;SDS011;2751;49.802;9.944;2022-11-25T13:45:54;14.83;;;10.37;;
5456;SDS011;2751;49.802;9.944;2022-11-25T13:48:22;13.33;;;9.63;;
5456;SDS011;2751;49.802;9.944;2022-11-25T13:51:10;17.67;;;10.47;;
5456;SDS011;2751;49.802;9.944;2022-11-25T13:53:40;12.83;;;10.37;;
5456;SDS011;2751;49.802;9.944;2022-11-25T13:56:23;14.87;;;10.10;;
5456;SDS011;2751;49.802;9.944;2022-11-25T14:02:22;15.30;;;9.80;;
5456;SDS011;2751;49.802;9.944;2022-11-25T14:05:34;16.47;;;9.30;;
5456;SDS011;2751;49.802;9.944;2022-11-25T14:08:19;13.40;;;9.13;;
5456;SDS011;2751;49.802;9.944;2022-11-25T14:10:53;12.80;;;10.77;;
5456;SDS011;2751;49.802;9.944;2022-11-25T14:13:45;12.40;;;9.60;;
5456;SDS011;2751;49.802;9.944;2022-11-25T14:16:25;13.40;;;9.70;;
5456;SDS011;2751;49.802;9.944;2022-11-25T14:22:18;13.70;;;9.87;;
5456;SDS011;2751;49.802;9.944;2022-11-25T14:24:59;14.30;;;9.57;;
5456;SDS011;2751;49.802;9.944;2022-11-25T14:27:38;14.70;;;9.30;;
5456;SDS011;2751;49.802;9.944;2022-11-25T14:30:14;13.43;;;10.27;;
5456;SDS011;2751;49.802;9.944;2022-11-25T14:32:42;18.50;;;10.80;;
5456;SDS011;2751;49.802;9.944;2022-11-25T14:35:18;12.20;;;9.40;;
5456;SDS011;2751;49.802;9.944;2022-11-25T14:37:48;12.33;;;9.47;;
5456;SDS011;2751;49.802;9.944;2022-11-25T14:40:18;12.73;;;9.77;;
5456;SDS011;2751;49.802;9.944;2022-11-25T14:42:51;17.73;;;10.70;;
5456;SDS011;2751;49.802;9.944;2022-11-25T14:45:30;15.37;;;10.20;;
5456;SDS011;2751;49.802;9.944;2022-11-25T14:48:11;16.93;;;12.07;;
5456;SDS011;2751;49.802;9.944;2022-11-25T14:50:39;17.33;;;11.97;;
5456;SDS011;2751;49.802;9.944;2022-11-25T14:53:07;17.70;;;11.90;;
5456;SDS011;2751;49.802;9.944;2022-11-25T14:55:35;15.50;;;10.03;;
5456;SDS011;2751;49.802;9.944;2022-11-25T14:58:03;16.93;;;10.97;;
5456;SDS011;2751;49.802;9.944;2022-11-25T15:00:31;13.97;;;10.90;;
5456;SDS011;2751;49.802;9.944;2022-11-25T15:02:59;15.17;;;10.13;;
5456;SDS011;2751;49.802;9.944;2022-11-25T15:05:30;12.80;;;9.60;;
5456;SDS011;2751;49.802;9.944;2022-11-25T15:07:59;14.20;;;9.80;;
5456;SDS011;2751;49.802;9.944;2022-11-25T15:10:28;14.60;;;9.73;;
5456;SDS011;2751;49.802;9.944;2022-11-25T15:12:56;11.67;;;9.23;;
5456;SDS011;2751;49.802;9.944;2022-11-25T15:15:24;15.00;;;9.80;;
5456;SDS011;2751;49.802;9.944;2022-11-25T15:17:54;16.53;;;9.80;;
5456;SDS011;2751;49.802;9.944;2022-11-25T15:20:28;10.23;;;8.93;;
5456;SDS011;2751;49.802;9.944;2022-11-25T15:22:58;12.17;;;9.93;;
5456;SDS011;2751;49.802;9.944;2022-11-25T15:25:25;11.63;;;10.43;;
5456;SDS011;2751;49.802;9.944;2022-11-25T15:27:52;14.13;;;10.20;;
5456;SDS011;2751;49.802;9.944;2022-11-25T15:30:20;18.57;;;11.40;;
5456;SDS011;2751;49.802;9.944;2022-11-25T15:32:48;13.17;;;10.57;;
5456;SDS011;2751;49.802;9.944;2022-11-25T15:35:18;14.60;;;11.07;;
5456;SDS011;2751;49.802;9.944;2022-11-25T15:37:47;11.93;;;10.77;;
5456;SDS011;2751;49.802;9.944;2022-11-25T15:40:28;18.83;;;10.40;;